Rock, Michigan
Current Conditions -  °F | °C
As of 4:50 PM on Monday 22 Dec 2014 (Local Time) from KSAW Reporting Station
Haze Haze  
Wind Chill: 24°   Ceiling: 1200
Heat Index: 32°   Visibility: 5mi
Dew Point: 30°   Wind: 9mph
Humidity: 93%   Direction: 150°SSE
Pressure: 29.86"   Gusts: 17mph
Location:  46.07°N, 87.17°W
Report Text: KSAW 222150Z 15008G15KT 5SM BR OVC012 00/M01 A2986
Loading
Personal Weather Stations






























Interactive Weather Map New forecast layout! Learn more

10-Day Weather Forecast

Advertisements
Track Severe Weather on mobile